createdAt,value
2022-10-18T00:01:22.116Z,82.14
2022-10-18T00:03:50.916Z,82.11
2022-10-18T00:06:19.912Z,82.06
2022-10-18T00:08:48.705Z,82.14
2022-10-18T00:11:17.727Z,82.15
2022-10-18T00:13:48.033Z,81.83
2022-10-18T00:16:19.019Z,81.64
2022-10-18T00:18:48.957Z,81.79
2022-10-18T00:21:19.860Z,82.10
2022-10-18T00:23:50.167Z,82.26
2022-10-18T00:26:21.456Z,82.35
2022-10-18T00:28:54.891Z,82.24
2022-10-18T00:31:26.036Z,82.58
2022-10-18T00:33:58.688Z,82.14
2022-10-18T00:36:29.320Z,82.11
2022-10-18T00:38:58.798Z,82.19
2022-10-18T00:41:30.390Z,82.29
2022-10-18T00:44:02.434Z,82.43
2022-10-18T00:46:33.364Z,82.33
2022-10-18T00:49:04.628Z,82.45
2022-10-18T00:51:38.791Z,82.38
2022-10-18T00:54:07.952Z,82.58
2022-10-18T00:56:37.109Z,82.62
2022-10-18T00:59:08.296Z,83.02
2022-10-18T01:01:37.622Z,83.05
2022-10-18T01:04:06.573Z,83.18
2022-10-18T01:06:44.445Z,83.14
2022-10-18T01:09:23.738Z,83.13
2022-10-18T01:12:16.599Z,83.20
2022-10-18T01:14:54.055Z,83.09
2022-10-18T01:17:28.553Z,83.23
2022-10-18T01:20:36.137Z,83.11
2022-10-18T01:23:09.807Z,83.09
2022-10-18T01:25:51.547Z,83.24
2022-10-18T01:28:46.658Z,83.38
2022-10-18T01:31:21.233Z,83.54
2022-10-18T01:33:53.350Z,83.33
2022-10-18T01:36:28.321Z,83.42
2022-10-18T01:39:01.486Z,83.26
2022-10-18T01:41:31.116Z,83.09
2022-10-18T01:44:03.024Z,83.33
2022-10-18T01:46:34.400Z,83.26
2022-10-18T01:49:03.601Z,83.41
2022-10-18T01:51:33.756Z,83.37
2022-10-18T01:54:03.122Z,83.22
2022-10-18T01:56:42.074Z,83.71
2022-10-18T01:59:27.336Z,83.80
2022-10-18T02:02:07.755Z,83.62
2022-10-18T02:04:45.445Z,83.55
2022-10-18T02:07:24.538Z,83.82
2022-10-18T02:10:02.272Z,83.81
2022-10-18T02:12:33.218Z,83.75
2022-10-18T02:15:04.096Z,83.69
2022-10-18T02:17:34.534Z,83.81
2022-10-18T02:20:05.549Z,83.69
2022-10-18T02:22:36.510Z,83.88
2022-10-18T02:25:10.778Z,83.92
2022-10-18T02:27:40.443Z,83.95
2022-10-18T02:30:10.929Z,83.96
2022-10-18T02:32:47.965Z,84.17
2022-10-18T02:35:24.407Z,84.60
2022-10-18T02:37:55.259Z,84.62
2022-10-18T02:40:24.476Z,85.06
2022-10-18T02:42:56.898Z,84.96
2022-10-18T02:45:26.577Z,84.73
2022-10-18T02:47:56.816Z,84.83
2022-10-18T02:50:25.846Z,84.79
2022-10-18T02:52:54.714Z,84.63
2022-10-18T02:55:23.791Z,84.70
2022-10-18T02:57:52.664Z,84.73
2022-10-18T03:00:21.839Z,84.65
2022-10-18T03:02:51.087Z,84.57
2022-10-18T03:05:21.531Z,84.60
2022-10-18T03:07:50.415Z,84.35
2022-10-18T03:10:19.575Z,84.32
2022-10-18T03:12:48.459Z,84.04
2022-10-18T03:15:17.551Z,83.97
2022-10-18T03:17:46.467Z,84.00
2022-10-18T03:20:15.530Z,83.85
2022-10-18T03:22:45.694Z,83.91
2022-10-18T03:25:14.844Z,83.78
2022-10-18T03:27:43.657Z,83.58
2022-10-18T03:30:13.791Z,83.37
2022-10-18T03:32:42.703Z,83.60
2022-10-18T03:35:12.285Z,83.69
2022-10-18T03:37:41.201Z,83.42
2022-10-18T03:40:12.533Z,83.56
2022-10-18T03:42:41.376Z,83.37
2022-10-18T03:45:11.098Z,83.33
2022-10-18T03:47:39.992Z,83.42
2022-10-18T03:50:09.713Z,83.56
2022-10-18T03:52:38.610Z,83.44
2022-10-18T03:55:10.208Z,83.18
2022-10-18T03:57:39.060Z,83.46
2022-10-18T04:00:09.393Z,83.30
2022-10-18T04:02:41.271Z,83.41
2022-10-18T04:05:10.951Z,83.30
2022-10-18T04:07:39.878Z,83.36
2022-10-18T04:10:11.035Z,83.37
2022-10-18T04:12:40.064Z,83.24
2022-10-18T04:15:10.249Z,83.43
2022-10-18T04:17:39.145Z,83.17
2022-10-18T04:20:09.249Z,83.13
2022-10-18T04:22:38.096Z,83.16
2022-10-18T04:25:07.769Z,83.28
2022-10-18T04:27:38.210Z,83.05
2022-10-18T04:30:08.375Z,83.07
2022-10-18T04:32:37.224Z,83.31
2022-10-18T04:35:07.389Z,83.06
2022-10-18T04:37:36.348Z,83.16
2022-10-18T04:40:06.386Z,83.13
2022-10-18T04:42:35.234Z,83.11
2022-10-18T04:45:06.485Z,83.11
2022-10-18T04:47:35.572Z,83.34
2022-10-18T04:50:05.872Z,83.30
2022-10-18T04:52:34.994Z,83.24
2022-10-18T04:55:04.040Z,83.22
2022-10-18T04:57:33.157Z,83.24
2022-10-18T05:00:02.496Z,83.22
2022-10-18T05:02:32.961Z,83.01
2022-10-18T05:05:02.257Z,83.11
2022-10-18T05:07:31.482Z,83.17
2022-10-18T05:10:00.502Z,83.51
2022-10-18T05:12:29.699Z,83.35
2022-10-18T05:14:58.927Z,83.36
2022-10-18T05:17:27.812Z,83.30
2022-10-18T05:19:58.196Z,83.42
2022-10-18T05:22:26.866Z,83.50
2022-10-18T05:24:55.889Z,83.51
2022-10-18T05:27:24.772Z,83.30
2022-10-18T05:29:53.780Z,83.34
2022-10-18T05:32:22.726Z,83.52
2022-10-18T05:34:51.790Z,83.45
2022-10-18T05:37:26.017Z,83.51
2022-10-18T05:39:57.266Z,83.57
2022-10-18T05:42:26.295Z,83.89
2022-10-18T05:44:55.307Z,83.67
2022-10-18T05:47:24.163Z,83.71
2022-10-18T05:49:53.246Z,83.79
2022-10-18T05:52:23.495Z,83.63
2022-10-18T05:54:52.560Z,83.83
2022-10-18T05:57:21.413Z,83.57
2022-10-18T05:59:50.432Z,83.73
2022-10-18T06:02:19.402Z,83.78
2022-10-18T06:04:48.520Z,83.74
2022-10-18T06:07:17.905Z,83.76
2022-10-18T06:09:48.412Z,83.66
2022-10-18T06:12:17.246Z,83.86
2022-10-18T06:14:46.320Z,83.87
2022-10-18T06:17:15.194Z,83.84
2022-10-18T06:19:44.505Z,83.99
2022-10-18T06:22:13.360Z,84.12
2022-10-18T06:24:42.369Z,83.77
2022-10-18T06:27:12.574Z,84.18
2022-10-18T06:29:41.915Z,84.15
2022-10-18T06:32:10.933Z,83.96
2022-10-18T06:34:40.028Z,83.99
2022-10-18T06:37:09.393Z,84.18
2022-10-18T06:39:38.385Z,84.16
2022-10-18T06:42:07.181Z,84.25
2022-10-18T06:44:37.862Z,84.40
2022-10-18T06:47:08.225Z,84.22
2022-10-18T06:49:37.321Z,84.32
2022-10-18T06:52:07.316Z,84.17
2022-10-18T06:54:36.190Z,84.18
2022-10-18T06:57:05.141Z,84.43
2022-10-18T06:59:34.224Z,84.63
2022-10-18T07:02:04.468Z,84.55
2022-10-18T07:04:33.591Z,84.39
2022-10-18T07:07:02.439Z,84.42
2022-10-18T07:09:31.684Z,84.34
2022-10-18T07:12:00.540Z,84.29
2022-10-18T07:14:29.704Z,84.57
2022-10-18T07:17:01.301Z,84.13
2022-10-18T07:19:31.684Z,84.26
2022-10-18T07:22:00.360Z,84.05
2022-10-18T07:24:29.471Z,84.21
2022-10-18T07:26:58.318Z,84.03
2022-10-18T07:29:27.386Z,83.99
2022-10-18T07:31:56.283Z,83.97
2022-10-18T07:34:25.442Z,83.88
2022-10-18T07:36:55.641Z,83.96
2022-10-18T07:39:25.109Z,83.79
2022-10-18T07:41:54.246Z,83.68
2022-10-18T07:44:23.530Z,83.82
2022-10-18T07:46:52.359Z,83.63
2022-10-18T07:49:21.379Z,83.69
2022-10-18T07:51:50.576Z,83.71
2022-10-18T07:54:22.364Z,83.54
2022-10-18T07:56:51.198Z,83.74
2022-10-18T07:59:20.207Z,83.64
2022-10-18T08:01:49.068Z,83.39
2022-10-18T08:04:18.264Z,83.26
2022-10-18T08:06:47.715Z,83.26
2022-10-18T08:09:16.812Z,83.28
2022-10-18T08:11:47.072Z,83.14
2022-10-18T08:14:16.342Z,83.07
2022-10-18T08:16:45.186Z,82.87
2022-10-18T08:19:14.214Z,82.94
2022-10-18T08:21:43.157Z,83.10
2022-10-18T08:24:12.209Z,83.00
2022-10-18T08:26:41.108Z,83.04
2022-10-18T08:29:22.428Z,83.08
2022-10-18T08:31:53.701Z,82.71
2022-10-18T08:34:22.775Z,82.77
2022-10-18T08:36:51.607Z,82.63
2022-10-18T08:39:20.680Z,82.67
2022-10-18T08:42:15.335Z,82.41
2022-10-18T08:44:48.127Z,82.28
2022-10-18T08:47:19.922Z,82.34
2022-10-18T08:49:52.813Z,82.23
2022-10-18T08:52:31.996Z,82.19
2022-10-18T08:55:05.200Z,82.29
2022-10-18T08:57:34.543Z,82.09
2022-10-18T09:00:16.083Z,81.95
2022-10-18T09:03:08.386Z,81.87
2022-10-18T09:05:47.735Z,81.39
2022-10-18T09:08:47.674Z,81.35
2022-10-18T09:11:22.029Z,81.13
2022-10-18T09:14:25.752Z,79.73
2022-10-18T09:17:06.789Z,79.72
2022-10-18T09:19:55.034Z,79.88
2022-10-18T09:22:34.023Z,79.60
2022-10-18T09:25:12.548Z,78.98
2022-10-18T09:27:52.237Z,78.93
2022-10-18T09:30:30.537Z,78.99
2022-10-18T09:33:08.376Z,78.96
2022-10-18T09:35:45.435Z,78.87
2022-10-18T09:38:20.727Z,78.44
2022-10-18T09:40:55.306Z,78.34
2022-10-18T09:43:27.643Z,78.28
2022-10-18T09:45:57.767Z,77.20
2022-10-18T09:48:32.250Z,77.45
2022-10-18T09:51:09.083Z,76.27
2022-10-18T09:53:43.914Z,75.65
2022-10-18T09:56:17.343Z,75.20
2022-10-18T09:58:48.751Z,74.58
2022-10-18T10:01:21.733Z,73.15
2022-10-18T10:03:52.460Z,73.18
2022-10-18T10:06:29.175Z,72.62
2022-10-18T10:09:06.204Z,71.50
2022-10-18T10:11:37.857Z,70.08
2022-10-18T10:14:13.794Z,70.13
2022-10-18T10:16:50.851Z,69.79
2022-10-18T10:19:27.945Z,69.06
2022-10-18T10:22:01.116Z,69.63
2022-10-18T10:24:47.729Z,70.06
2022-10-18T10:27:21.431Z,68.03
2022-10-18T10:29:56.555Z,68.03
2022-10-18T10:32:28.713Z,68.70
2022-10-18T10:34:59.779Z,67.61
2022-10-18T10:37:35.264Z,67.30
2022-10-18T10:40:18.756Z,66.61
2022-10-18T10:43:33.100Z,65.72
2022-10-18T10:46:08.737Z,65.47
2022-10-18T10:48:48.197Z,65.99
2022-10-18T10:51:30.009Z,65.11
2022-10-18T10:54:04.970Z,66.65
2022-10-18T10:56:36.950Z,66.48
2022-10-18T10:59:14.632Z,66.73
2022-10-18T11:01:44.071Z,66.37
2022-10-18T11:04:26.321Z,66.63
2022-10-18T11:07:13.552Z,66.57
2022-10-18T11:09:58.365Z,66.02
2022-10-18T11:12:34.597Z,65.39
2022-10-18T11:15:22.128Z,63.03
2022-10-18T11:18:04.103Z,63.75
2022-10-18T11:20:38.088Z,65.17
2022-10-18T11:23:11.948Z,65.49
2022-10-18T11:26:02.986Z,65.77
2022-10-18T11:28:47.101Z,65.69
2022-10-18T11:31:20.605Z,66.03
2022-10-18T11:34:16.288Z,65.58
2022-10-18T11:36:56.367Z,64.88
2022-10-18T11:39:51.014Z,64.44
2022-10-18T11:42:27.953Z,63.99
2022-10-18T11:45:08.048Z,64.99
2022-10-18T11:47:45.773Z,64.02
2022-10-18T11:50:26.689Z,64.80
2022-10-18T11:53:05.618Z,65.28
2022-10-18T11:55:47.954Z,65.20
2022-10-18T11:58:40.911Z,65.49
2022-10-18T12:01:24.738Z,65.74
2022-10-18T12:04:03.787Z,65.70
2022-10-18T12:06:37.602Z,66.20
2022-10-18T12:09:15.692Z,65.93
2022-10-18T12:11:55.806Z,66.00
2022-10-18T12:14:26.459Z,65.20
2022-10-18T12:17:35.908Z,66.50
2022-10-18T12:19:53.102Z,66.38
2022-10-18T12:22:27.058Z,66.51
2022-10-18T12:24:55.938Z,66.67
2022-10-18T12:27:38.986Z,66.56
2022-10-18T12:30:15.447Z,66.82
2022-10-18T12:33:02.106Z,66.85
2022-10-18T12:35:45.849Z,67.18
2022-10-18T12:38:22.477Z,67.26
2022-10-18T12:40:53.760Z,67.49
2022-10-18T12:43:27.689Z,67.63
2022-10-18T12:45:59.130Z,67.94
2022-10-18T12:48:32.989Z,67.85
2022-10-18T12:51:14.109Z,68.11
2022-10-18T12:53:45.205Z,68.10
2022-10-18T12:56:41.883Z,68.21
2022-10-18T12:59:50.964Z,68.40
2022-10-18T13:02:30.593Z,68.64
2022-10-18T13:05:02.300Z,68.69
2022-10-18T13:07:41.051Z,68.92
2022-10-18T13:10:40.626Z,68.84
2022-10-18T13:14:15.728Z,68.98
2022-10-18T13:16:50.575Z,69.16
2022-10-18T13:19:42.649Z,69.05
2022-10-18T13:22:39.450Z,69.35
2022-10-18T13:25:17.963Z,69.27
2022-10-18T13:27:57.370Z,69.40
2022-10-18T13:30:54.511Z,69.42
2022-10-18T13:33:38.929Z,69.21
2022-10-18T13:36:27.800Z,69.21
2022-10-18T13:39:06.001Z,69.23
2022-10-18T13:42:06.970Z,68.81
2022-10-18T13:44:39.994Z,69.21
2022-10-18T13:47:14.979Z,69.38
2022-10-18T13:50:19.925Z,69.37
2022-10-18T13:53:30.431Z,69.68
2022-10-18T13:56:47.024Z,69.55
2022-10-18T14:02:51.112Z,69.84
2022-10-18T14:05:46.887Z,69.76
2022-10-18T14:08:20.985Z,69.98
2022-10-18T14:11:02.513Z,70.15
2022-10-18T14:13:39.985Z,70.28
2022-10-18T14:16:24.928Z,70.08
2022-10-18T14:18:58.144Z,70.36
2022-10-18T14:21:45.479Z,70.39
2022-10-18T14:24:34.131Z,70.44
2022-10-18T14:27:22.617Z,70.64
2022-10-18T14:33:00.427Z,71.00
2022-10-18T14:35:33.304Z,70.93
2022-10-18T14:38:03.428Z,70.94
2022-10-18T14:40:37.915Z,71.09
2022-10-18T14:43:12.283Z,71.10
2022-10-18T14:45:42.271Z,71.21
2022-10-18T14:48:17.159Z,71.14
2022-10-18T14:50:50.421Z,71.23
2022-10-18T14:53:22.118Z,71.40
2022-10-18T14:56:01.121Z,71.59
2022-10-18T14:58:30.267Z,71.64
2022-10-18T15:01:00.036Z,71.81
2022-10-18T15:03:29.294Z,71.86
2022-10-18T15:06:00.951Z,72.12
2022-10-18T15:08:36.661Z,72.29
2022-10-18T15:11:11.835Z,72.35
2022-10-18T15:13:49.208Z,72.37
2022-10-18T15:16:19.788Z,72.44
2022-10-18T15:19:02.820Z,72.48
2022-10-18T15:21:32.217Z,72.55
2022-10-18T15:24:20.584Z,72.58
2022-10-18T15:26:52.841Z,72.69
2022-10-18T15:29:24.785Z,72.60
2022-10-18T15:31:54.535Z,72.71
2022-10-18T15:34:25.852Z,72.96
2022-10-18T15:36:56.690Z,72.92
2022-10-18T15:39:27.487Z,72.75
2022-10-18T15:41:59.880Z,73.19
2022-10-18T15:44:32.125Z,72.95
2022-10-18T15:47:20.629Z,73.15
2022-10-18T15:49:55.220Z,73.16
2022-10-18T15:52:38.857Z,73.23
2022-10-18T15:55:49.747Z,73.19
2022-10-18T15:58:40.020Z,73.04
2022-10-18T16:01:17.114Z,73.27
2022-10-18T16:03:48.428Z,73.38
2022-10-18T16:06:18.544Z,73.16
2022-10-18T16:08:49.689Z,73.33
2022-10-18T16:11:20.867Z,73.48
2022-10-18T16:13:54.018Z,73.50
2022-10-18T16:16:27.440Z,73.54
2022-10-18T16:18:56.986Z,73.77
2022-10-18T16:21:28.017Z,73.77
2022-10-18T16:23:57.716Z,73.73
2022-10-18T16:26:28.048Z,73.77
2022-10-18T16:28:59.843Z,73.99
2022-10-18T16:31:30.713Z,74.15
2022-10-18T16:34:00.543Z,74.43
2022-10-18T16:36:31.295Z,74.23
2022-10-18T16:39:03.465Z,74.28
2022-10-18T16:41:32.411Z,74.50
2022-10-18T16:44:02.908Z,74.41
2022-10-18T16:46:33.856Z,74.52
2022-10-18T16:49:10.607Z,74.48
2022-10-18T16:51:39.417Z,74.57
2022-10-18T16:54:09.049Z,75.00
2022-10-18T16:56:38.126Z,75.01
2022-10-18T16:59:09.092Z,74.88
2022-10-18T17:01:38.389Z,75.06
2022-10-18T17:04:07.641Z,75.20
2022-10-18T17:06:36.496Z,75.21
2022-10-18T17:09:05.885Z,75.14
2022-10-18T17:11:35.130Z,75.15
2022-10-18T17:14:04.394Z,75.38
2022-10-18T17:16:36.931Z,75.59
2022-10-18T17:19:08.451Z,75.36
2022-10-18T17:21:37.425Z,75.38
2022-10-18T17:24:06.934Z,75.59
2022-10-18T17:26:36.207Z,75.74
2022-10-18T17:29:08.498Z,75.40
2022-10-18T17:31:38.875Z,75.78
2022-10-18T17:34:08.981Z,75.95
2022-10-18T17:36:37.875Z,75.75
2022-10-18T17:39:07.278Z,75.64
2022-10-18T17:41:36.117Z,75.77
2022-10-18T17:44:05.953Z,75.59
2022-10-18T17:46:34.811Z,75.34
2022-10-18T17:49:05.301Z,75.62
2022-10-18T17:51:34.184Z,75.56
2022-10-18T17:54:04.935Z,75.34
2022-10-18T17:56:35.887Z,75.39
2022-10-18T17:59:05.052Z,75.49
2022-10-18T18:01:33.907Z,75.33
2022-10-18T18:04:05.431Z,75.36
2022-10-18T18:06:36.374Z,75.38
2022-10-18T18:09:08.068Z,75.31
2022-10-18T18:11:38.602Z,75.17
2022-10-18T18:14:09.666Z,75.09
2022-10-18T18:16:40.556Z,75.26
2022-10-18T18:19:11.547Z,75.25
2022-10-18T18:21:41.532Z,75.10
2022-10-18T18:24:11.325Z,75.60
2022-10-18T18:26:41.479Z,75.81
2022-10-18T18:29:12.587Z,75.69
2022-10-18T18:31:44.054Z,75.81
2022-10-18T18:34:14.604Z,75.69
2022-10-18T18:36:43.885Z,75.57
2022-10-18T18:39:21.231Z,75.60
2022-10-18T18:41:51.660Z,75.76
2022-10-18T18:44:21.621Z,75.39
2022-10-18T18:46:50.829Z,75.63
2022-10-18T18:49:21.361Z,75.85
2022-10-18T18:51:50.233Z,76.04
2022-10-18T18:54:19.394Z,75.94
2022-10-18T18:56:48.374Z,75.92
2022-10-18T18:59:18.410Z,76.01
2022-10-18T19:01:47.486Z,75.84
2022-10-18T19:04:17.041Z,75.81
2022-10-18T19:06:47.607Z,76.23
2022-10-18T19:09:22.001Z,76.12
2022-10-18T19:11:52.975Z,76.26
2022-10-18T19:14:24.170Z,76.11
2022-10-18T19:16:55.319Z,75.93
2022-10-18T19:19:26.257Z,75.94
2022-10-18T19:21:58.102Z,76.11
2022-10-18T19:24:30.285Z,75.91
2022-10-18T19:27:01.374Z,76.13
2022-10-18T19:29:32.953Z,76.20
2022-10-18T19:32:03.684Z,76.19
2022-10-18T19:34:34.836Z,76.24
2022-10-18T19:37:05.348Z,76.18
2022-10-18T19:39:35.883Z,76.31
2022-10-18T19:42:07.132Z,76.13
2022-10-18T19:44:37.968Z,76.27
2022-10-18T19:47:08.615Z,76.32
2022-10-18T19:49:37.858Z,76.39
2022-10-18T19:52:08.130Z,76.33
2022-10-18T19:54:37.260Z,76.44
2022-10-18T19:57:06.911Z,76.43
2022-10-18T19:59:36.500Z,76.40
2022-10-18T20:02:05.639Z,76.40
2022-10-18T20:04:35.211Z,76.45
2022-10-18T20:07:50.356Z,76.89
2022-10-18T20:10:52.807Z,76.39
2022-10-18T20:13:48.407Z,76.55
2022-10-18T20:16:26.957Z,76.97
2022-10-18T20:18:58.816Z,76.89
2022-10-18T20:21:29.341Z,76.70
2022-10-18T20:23:59.563Z,76.99
2022-10-18T20:26:28.735Z,77.20
2022-10-18T20:29:00.043Z,76.95
2022-10-18T20:31:31.024Z,77.08
2022-10-18T20:34:01.549Z,77.41
2022-10-18T20:36:31.991Z,77.31
2022-10-18T20:39:02.464Z,77.37
2022-10-18T20:41:33.776Z,77.41
2022-10-18T20:44:05.265Z,77.35
2022-10-18T20:46:36.575Z,77.20
2022-10-18T20:49:06.575Z,77.26
2022-10-18T20:51:36.131Z,77.21
2022-10-18T20:54:07.673Z,77.24
2022-10-18T20:56:38.683Z,77.28
2022-10-18T20:59:10.012Z,77.03
2022-10-18T21:01:40.717Z,77.36
2022-10-18T21:04:11.058Z,77.23
2022-10-18T21:06:42.823Z,77.24
2022-10-18T21:09:15.418Z,77.28
2022-10-18T21:11:47.563Z,77.33
2022-10-18T21:14:18.648Z,77.25
2022-10-18T21:16:48.637Z,77.58
2022-10-18T21:19:19.428Z,77.55
2022-10-18T21:21:51.257Z,77.32
2022-10-18T21:24:22.786Z,77.49
2022-10-18T21:26:51.963Z,77.34
2022-10-18T21:29:22.718Z,77.57
2022-10-18T21:31:55.094Z,77.56
2022-10-18T21:34:24.223Z,77.74
2022-10-18T21:36:53.366Z,77.65
2022-10-18T21:39:25.233Z,77.50
2022-10-18T21:41:54.436Z,77.45
2022-10-18T21:44:23.668Z,77.69
2022-10-18T21:46:52.888Z,77.72
2022-10-18T21:49:24.923Z,78.21
2022-10-18T21:51:54.135Z,78.23
2022-10-18T21:54:24.525Z,78.01
2022-10-18T21:56:53.769Z,77.78
2022-10-18T21:59:22.974Z,77.90
2022-10-18T22:01:53.988Z,77.99
2022-10-18T22:04:24.875Z,78.02
2022-10-18T22:06:54.206Z,77.95
2022-10-18T22:09:24.629Z,77.84
2022-10-18T22:11:55.020Z,77.70
2022-10-18T22:14:24.276Z,78.00
2022-10-18T22:16:53.989Z,77.95
2022-10-18T22:19:23.016Z,77.79
2022-10-18T22:21:52.267Z,78.24
2022-10-18T22:24:21.317Z,77.83
2022-10-18T22:26:52.208Z,77.81
2022-10-18T22:29:22.761Z,78.14
2022-10-18T22:31:53.859Z,78.00
2022-10-18T22:34:24.851Z,78.07
2022-10-18T22:36:54.413Z,77.80
2022-10-18T22:39:24.574Z,78.08
2022-10-18T22:41:56.583Z,78.07
2022-10-18T22:44:26.276Z,77.92
2022-10-18T22:46:55.481Z,77.90
2022-10-18T22:49:24.436Z,77.87
2022-10-18T22:51:53.710Z,77.99
2022-10-18T22:54:22.727Z,77.94
2022-10-18T22:56:51.926Z,78.42
2022-10-18T22:59:22.380Z,77.87
2022-10-18T23:01:51.563Z,77.78
2022-10-18T23:04:20.691Z,77.74
2022-10-18T23:06:50.242Z,77.83
2022-10-18T23:09:19.254Z,77.54
2022-10-18T23:11:50.869Z,77.60
2022-10-18T23:14:21.743Z,77.56
2022-10-18T23:16:50.940Z,77.24
2022-10-18T23:19:19.995Z,77.35
2022-10-18T23:21:49.231Z,77.10
2022-10-18T23:24:18.246Z,77.16
2022-10-18T23:26:47.421Z,77.06
2022-10-18T23:29:16.404Z,76.95
2022-10-18T23:31:46.983Z,76.88
2022-10-18T23:34:16.161Z,77.00
2022-10-18T23:36:45.344Z,76.54
2022-10-18T23:39:14.342Z,76.79
2022-10-18T23:41:43.508Z,76.55
2022-10-18T23:44:12.515Z,76.56
2022-10-18T23:46:41.719Z,76.57
2022-10-18T23:49:12.804Z,76.82
2022-10-18T23:51:42.067Z,76.77
2022-10-18T23:54:11.061Z,76.67
2022-10-18T23:56:40.275Z,76.52
2022-10-18T23:59:09.275Z,76.61
